»·PEaware :: N183RM KCMA-KSNA

N183RM :: KCMA-KSNA

FLIGHT INFORMATION

Flight Status: Arrived
Operator: Privately registered:
United States
More flights under this callsign
Pilot: Roy M. (33676)
Aircraft: CESSNA 172 SKYHAWK
(C172)
More flights by this aircraft type
Origin: KCMA Camarillo
United States
Destination: KSNA John Wayne-Orange Co
United States
More flights between these airports :: More routes between these airports
Route: VNY
File this flight plan on PilotEdge
Remarks:
Altitude:
(Current/Filed)
5,500ft
Speed:
(Current/Filed)
110kts
Departed: 21-Feb-21 09:56 PM
Arrived: 21-Feb-21 10:45 PM
Distance/Time
Traveled:
6823nm/0:49
Distance/Time
To Go:
Arrived

Flight Plot

Page will automatically refresh every two minutes.

Flight plan parsing failed; only flown route is shown


Map Options




Map Legend


Flown Route
Filed Route
Departure Airport
Arrival Airport
Navaid (VOR, NDB)
Fix

Horizontal Profiles

Position Reports

Time Latitude Longitude Heading Altitude Ground
Speed
21-Feb-21 21:31 34.210642 -119.075756 87 81ft 0kts
21-Feb-21 21:32 34.210642 -119.075756 87 81ft 0kts
21-Feb-21 21:33 34.210642 -119.075756 87 81ft 0kts
21-Feb-21 21:34 34.210642 -119.075756 87 81ft 0kts
21-Feb-21 21:35 34.210642 -119.075756 87 81ft 0kts
21-Feb-21 21:36 34.210642 -119.075756 87 81ft 0kts
21-Feb-21 21:37 34.210642 -119.075756 87 81ft 0kts
21-Feb-21 21:38 34.210642 -119.075756 87 81ft 0kts
21-Feb-21 21:39 34.210642 -119.075756 87 81ft 0kts
21-Feb-21 21:40 34.210642 -119.075756 87 81ft 0kts
21-Feb-21 21:41 34.210642 -119.075756 87 81ft 0kts
21-Feb-21 21:42 34.210642 -119.075756 87 81ft 0kts
21-Feb-21 21:43 34.210642 -119.075756 87 81ft 0kts
21-Feb-21 21:44 34.210642 -119.075756 87 81ft 0kts
21-Feb-21 21:45 34.210642 -119.075756 87 81ft 0kts
21-Feb-21 21:46 34.210642 -119.075756 87 81ft 0kts
21-Feb-21 21:47 34.210642 -119.075756 87 81ft 0kts
21-Feb-21 21:48 34.210640 -119.075600 85 81ft 11kts
21-Feb-21 21:49 34.212692 -119.074570 359 84ft 11kts
21-Feb-21 21:50 34.211208 -119.076757 271 80ft 22kts
21-Feb-21 21:51 34.211251 -119.083264 277 80ft 18kts
21-Feb-21 21:52 34.212452 -119.084048 322 79ft 0kts
21-Feb-21 21:53 34.212453 -119.084048 322 79ft 0kts
21-Feb-21 21:54 34.213586 -119.084909 302 79ft 22kts
21-Feb-21 21:55 34.213990 -119.108989 270 478ft 88kts
21-Feb-21 21:56 34.230045 -119.124247 39 1035ft 102kts
21-Feb-21 21:57 34.232384 -119.088681 93 1255ft 111kts
21-Feb-21 21:58 34.231706 -119.052958 92 1370ft 106kts
21-Feb-21 21:59 34.230247 -119.018797 91 2022ft 100kts
21-Feb-21 22:00 34.228643 -118.983562 91 2475ft 106kts
21-Feb-21 22:01 34.228694 -118.948336 88 2967ft 106kts
21-Feb-21 22:02 34.229195 -118.913533 90 3530ft 102kts
21-Feb-21 22:03 34.226801 -118.879444 93 4053ft 97kts
21-Feb-21 22:04 34.223116 -118.845274 89 4402ft 100kts
21-Feb-21 22:05 34.221832 -118.810521 97 4666ft 105kts
21-Feb-21 22:06 34.220521 -118.776486 89 5210ft 90kts
21-Feb-21 22:07 34.217553 -118.745020 92 5475ft 103kts
21-Feb-21 22:08 34.214069 -118.709817 92 5552ft 111kts
21-Feb-21 22:09 34.213006 -118.672575 81 5522ft 112kts
21-Feb-21 22:10 34.213802 -118.635097 91 5546ft 115kts
21-Feb-21 22:11 34.212364 -118.597598 97 5545ft 115kts
21-Feb-21 22:12 34.186964 -118.574818 160 5505ft 126kts
21-Feb-21 22:13 34.159697 -118.552464 143 5673ft 119kts
21-Feb-21 22:14 34.128221 -118.535631 152 5711ft 121kts
21-Feb-21 22:15 34.122157 -118.562342 3 5568ft 122kts
21-Feb-21 22:16 34.111140 -118.537033 160 5586ft 120kts
21-Feb-21 22:17 34.081786 -118.515304 138 5463ft 124kts
21-Feb-21 22:18 34.053474 -118.492086 155 5494ft 125kts
21-Feb-21 22:19 34.021446 -118.476179 149 5499ft 124kts
21-Feb-21 22:20 33.992022 -118.457516 148 5500ft 124kts
21-Feb-21 22:21 33.960060 -118.441674 166 5501ft 126kts
21-Feb-21 22:22 33.925659 -118.434490 151 5505ft 124kts
21-Feb-21 22:23 33.902786 -118.405235 120 5511ft 121kts
21-Feb-21 22:24 33.878954 -118.376531 138 5509ft 123kts
21-Feb-21 22:25 33.852425 -118.350577 138 5509ft 123kts
21-Feb-21 22:26 33.826106 -118.324899 138 5509ft 123kts
21-Feb-21 22:27 33.800568 -118.297428 130 5509ft 122kts
21-Feb-21 22:28 33.776494 -118.268307 137 5500ft 123kts
21-Feb-21 22:29 33.749942 -118.242562 138 5500ft 123kts
21-Feb-21 22:30 33.722924 -118.216918 138 5500ft 123kts
21-Feb-21 22:31 33.695915 -118.191562 138 5500ft 123kts
21-Feb-21 22:32 33.668785 -118.166446 138 5500ft 123kts
21-Feb-21 22:33 33.656582 -118.132619 90 5501ft 117kts
21-Feb-21 22:34 33.655708 -118.093491 89 5500ft 116kts
21-Feb-21 22:35 33.654926 -118.054621 88 5498ft 116kts
21-Feb-21 22:36 33.654126 -118.015691 88 5500ft 116kts
21-Feb-21 22:37 33.653318 -117.976720 88 5500ft 117kts
21-Feb-21 22:38 33.658218 -117.940789 43 5500ft 115kts
21-Feb-21 22:39 33.684336 -117.918764 29 5500ft 116kts
21-Feb-21 22:40 33.713064 -117.900830 29 5499ft 116kts
21-Feb-21 22:41 33.733588 -117.876051 99 4053ft 116kts
21-Feb-21 22:42 33.713436 -117.844686 187 1592ft 132kts
21-Feb-21 22:43 33.687331 -117.861519 207 200ft 76kts
21-Feb-21 22:44 33.675745 -117.869152 269 56ft 4kts
21-Feb-21 22:45 33.675954 -117.869795 296 55ft 0kts
21-Feb-21 22:46 33.675716 -117.870442 208 54ft 6kts
21-Feb-21 22:47 33.674839 -117.871471 263 53ft 0kts
21-Feb-21 22:48 33.674839 -117.871471 263 53ft 0kts
21-Feb-21 22:49 33.674839 -117.871471 263 53ft 0kts
21-Feb-21 22:50 33.674839 -117.871471 263 53ft 0kts
21-Feb-21 22:51 33.674839 -117.871471 263 53ft 0kts
21-Feb-21 22:52 33.674839 -117.871471 263 53ft 0kts
21-Feb-21 22:54 33.674839 -117.871471 263 53ft 0kts
21-Feb-21 22:55 33.674839 -117.871471 263 53ft 0kts
21-Feb-21 22:56 33.674839 -117.871471 263 53ft 0kts
21-Feb-21 22:57 33.674839 -117.871471 263 53ft 0kts
21-Feb-21 22:58 0.000408 0.013975 0 3ft 0kts
21-Feb-21 22:59 0.000408 0.013975 0 3ft 0kts

Navigation Log

Ident Type
Flight plan parsing failed, navigation log unavailable